Time;durP1;ratioP1;P1;durP2;ratioP2;P2;SDS_P1;SDS_P2;PMS_P1;PMS_P2;Temp;Humidity;BMP_temperature;BMP_pressure;BME280_temperature;BME280_humidity;BME280_pressure;Samples;Min_cycle;Max_cycle;Signal;HPM_P1;HPM_P2
2021/03/17 00:00:35;;;;;;;4.37;2.60;;;3.80;84.70;;;4.06;69.37;98050.72;5088807;28;20043;-34
2021/03/17 00:03:22;;;;;;;4.07;2.67;;;3.80;84.40;;;4.11;69.03;98052.06;5086440;28;20043;-35
2021/03/17 00:06:10;;;;;;;4.60;2.57;;;3.90;85.00;;;4.08;69.35;98052.28;5084754;28;20051;-34
2021/03/17 00:08:55;;;;;;;2.83;2.33;;;3.80;84.60;;;4.08;68.95;98046.16;5088116;28;20047;-34
2021/03/17 00:11:41;;;;;;;4.53;2.77;;;3.80;84.90;;;4.13;69.31;98052.78;5086410;28;20372;-34
2021/03/17 00:14:28;;;;;;;3.30;2.50;;;3.80;85.00;;;4.16;68.91;98049.09;5083999;28;20055;-34
2021/03/17 00:17:13;;;;;;;4.63;2.80;;;3.90;84.50;;;4.14;69.01;98046.56;5088239;28;20062;-34
2021/03/17 00:19:59;;;;;;;4.33;2.70;;;3.90;84.90;;;4.09;68.76;98051.34;5086454;28;20047;-34
2021/03/17 00:22:45;;;;;;;4.47;3.07;;;3.80;85.00;;;4.10;69.16;98044.25;5083686;28;20051;-34
2021/03/17 00:25:39;;;;;;;3.97;3.03;;;3.80;85.00;;;4.12;69.40;98043.19;5088384;28;20047;-34
2021/03/17 00:28:26;;;;;;;4.53;2.80;;;3.80;85.10;;;4.18;68.93;98041.06;5085880;28;20046;-34
2021/03/17 00:31:12;;;;;;;4.47;2.93;;;3.90;84.80;;;4.20;68.67;98036.53;5068736;28;20051;-34
2021/03/17 00:33:58;;;;;;;4.53;2.93;;;3.90;84.90;;;4.19;68.47;98030.44;5087443;28;20054;-34
2021/03/17 00:36:44;;;;;;;5.27;3.00;;;3.80;85.10;;;4.20;68.53;98032.09;5085764;28;20039;-35
2021/03/17 00:39:30;;;;;;;4.40;2.90;;;3.90;85.10;;;4.20;68.99;98031.25;5083553;28;20073;-34
2021/03/17 00:42:16;;;;;;;5.03;3.30;;;3.90;84.90;;;4.25;68.55;98032.59;5087238;28;20050;-34
2021/03/17 00:45:03;;;;;;;5.53;2.90;;;3.90;84.80;;;4.25;68.65;98031.78;5085546;28;20253;-35
2021/03/17 00:47:49;;;;;;;6.00;3.60;;;4.00;84.70;;;4.17;68.69;98032.34;5083514;28;20051;-34
2021/03/17 00:50:19;;;;;;;6.03;4.00;;;3.80;84.90;;;4.15;69.33;98026.34;5083196;28;20048;-34
2021/03/17 00:52:55;;;;;;;4.77;3.27;;;3.80;85.10;;;4.17;68.77;98026.19;5064757;28;20062;-34
2021/03/17 00:55:26;;;;;;;4.27;3.03;;;3.80;85.30;;;4.15;69.00;98018.44;5064504;28;20059;-34
2021/03/17 00:58:05;;;;;;;4.90;2.83;;;3.80;85.10;;;4.16;68.79;98021.91;5083926;28;20275;-34
2021/03/17 01:00:33;;;;;;;5.50;3.33;;;3.80;85.10;;;4.19;68.77;98019.03;5084094;28;20047;-35
2021/03/17 01:03:00;;;;;;;5.33;3.37;;;3.80;85.40;;;4.21;69.10;98010.06;5089772;28;20044;-34
2021/03/17 01:05:29;;;;;;;6.13;3.33;;;3.90;85.10;;;4.22;68.98;98017.00;5082872;28;20238;-34
2021/03/17 01:07:58;;;;;;;4.70;3.23;;;3.90;84.70;;;4.23;69.13;98012.59;5081800;28;20064;-34
2021/03/17 01:10:40;;;;;;;4.20;3.00;;;3.90;84.50;;;4.24;68.49;98009.81;5064886;28;20075;-34
2021/03/17 01:13:09;;;;;;;4.53;3.03;;;3.90;84.70;;;4.25;68.72;98006.25;5082395;28;20053;-34
2021/03/17 01:15:37;;;;;;;3.90;2.63;;;3.90;84.40;;;4.23;68.86;98004.69;5082671;28;20074;-34
2021/03/17 01:18:06;;;;;;;5.30;3.70;;;3.90;84.60;;;4.18;68.73;98009.44;5064966;28;20350;-34
2021/03/17 01:20:35;;;;;;;5.07;2.70;;;3.80;84.90;;;4.16;68.97;98006.09;5082640;28;20361;-35
2021/03/17 01:23:04;;;;;;;5.17;3.13;;;3.80;85.10;;;4.04;69.39;98002.56;5082047;28;20044;-35
2021/03/17 01:25:41;;;;;;;4.30;2.93;;;3.70;85.10;;;4.07;68.77;98002.31;5081779;28;20054;-35
2021/03/17 01:28:11;;;;;;;3.33;2.17;;;3.60;85.30;;;3.84;69.85;98002.19;5081689;28;20058;-34
2021/03/17 01:30:44;;;;;;;4.20;2.67;;;3.60;85.60;;;3.89;69.30;98007.97;5082514;28;20048;-34
2021/03/17 01:33:14;;;;;;;3.55;2.45;;;3.50;86.50;;;3.89;68.95;98005.31;5082011;28;20044;-34
2021/03/17 01:35:45;;;;;;;3.23;2.20;;;3.50;85.70;;;3.85;69.63;98000.41;5081557;28;20096;-35
2021/03/17 01:38:13;;;;;;;3.07;1.97;;;3.50;85.90;;;3.80;69.47;97987.56;5082339;28;20046;-35
2021/03/17 01:40:44;;;;;;;2.83;2.10;;;3.50;86.00;;;3.84;69.41;97985.53;5063837;28;20048;-34
2021/03/17 01:43:13;;;;;;;2.83;1.93;;;3.50;85.30;;;3.84;69.70;97985.53;5064348;28;20041;-34
2021/03/17 01:45:42;;;;;;;2.77;1.80;;;3.50;85.00;;;3.84;69.26;97990.81;5064544;28;20372;-34
2021/03/17 01:48:11;;;;;;;2.20;1.73;;;3.50;85.10;;;3.80;69.48;97990.22;5064655;28;20044;-34
2021/03/17 01:50:48;;;;;;;2.30;1.70;;;3.50;85.10;;;3.79;69.35;97988.50;5082142;28;20048;-34
2021/03/17 01:53:29;;;;;;;2.40;2.00;;;3.40;85.00;;;3.77;69.33;97989.59;5064710;28;20365;-34
2021/03/17 01:55:58;;;;;;;2.73;1.83;;;3.40;85.10;;;3.73;69.08;97989.78;5065151;28;20243;-34
2021/03/17 01:58:29;;;;;;;2.20;1.70;;;3.30;85.30;;;3.71;69.10;97991.69;5079812;28;20051;-34
2021/03/17 02:00:57;;;;;;;2.20;1.70;;;3.30;85.60;;;3.66;69.76;97985.91;5064589;28;20041;-34
2021/03/17 02:03:27;;;;;;;2.97;2.00;;;3.20;85.90;;;3.69;69.03;97985.69;5081737;28;20040;-34
2021/03/17 02:05:54;;;;;;;2.60;1.60;;;3.30;85.80;;;3.69;69.26;97990.13;5082105;28;20044;-34
2021/03/17 02:08:32;;;;;;;2.13;1.43;;;3.30;85.60;;;3.66;69.14;97990.34;5064344;28;20241;-34
2021/03/17 02:10:59;;;;;;;3.43;1.70;;;3.30;85.50;;;3.69;69.67;97985.69;5086356;28;20045;-34
2021/03/17 02:13:55;;;;;;;2.70;1.80;;;3.30;85.50;;;3.69;69.30;97993.59;5085667;28;20364;-34
2021/03/17 02:16:45;;;;;;;2.20;1.70;;;3.30;85.50;;;3.73;69.23;97984.53;5068487;28;20044;-34
2021/03/17 02:19:24;;;;;;;2.33;1.80;;;3.40;85.20;;;3.76;68.68;97983.44;5085554;28;20045;-35
2021/03/17 02:22:51;;;;;;;2.70;1.83;;;3.40;85.00;;;3.79;68.88;97982.41;5068343;28;20062;-34
2021/03/17 02:25:46;;;;;;;1.87;1.50;;;3.50;84.90;;;3.80;69.48;97989.34;4984242;28;20051;-34
2021/03/17 02:28:30;;;;;;;3.37;1.80;;;3.50;84.90;;;3.78;69.07;97986.84;5084615;28;20065;-35
2021/03/17 02:31:47;;;;;;;2.60;1.63;;;3.40;85.20;;;3.72;69.01;97988.13;5064631;28;20223;-34
2021/03/17 02:34:21;;;;;;;2.80;1.77;;;3.30;85.30;;;3.63;69.40;97990.56;5057077;28;20067;-34
2021/03/17 02:36:58;;;;;;;2.05;1.30;;;3.20;85.30;;;3.63;69.20;97988.78;5066560;28;20052;-35
2021/03/17 02:39:37;;;;;;;2.30;1.40;;;3.30;85.90;;;3.63;69.41;97991.41;5058983;28;20048;-34
2021/03/17 02:42:18;;;;;;;2.53;1.60;;;3.30;86.00;;;3.62;69.33;97994.13;5052234;28;20258;-34
2021/03/17 02:44:51;;;;;;;2.70;1.90;;;3.20;85.80;;;3.70;69.57;97991.78;5072173;28;20106;-35
2021/03/17 02:47:20;;;;;;;1.65;1.33;;;3.40;85.80;;;3.78;69.49;97993.88;5065289;28;20052;-34
2021/03/17 02:49:52;;;;;;;2.10;1.53;;;3.50;85.50;;;3.84;69.11;97983.75;5067985;28;20049;-35
2021/03/17 02:52:20;;;;;;;2.50;1.60;;;3.50;84.80;;;3.88;68.98;97984.38;5066658;28;20052;-34
2021/03/17 02:54:49;;;;;;;2.83;1.80;;;3.60;84.80;;;3.90;69.09;97980.69;5067265;28;20056;-34
2021/03/17 02:57:21;;;;;;;3.23;1.70;;;3.60;84.60;;;3.90;69.10;97982.47;5067548;28;20036;-34
2021/03/17 02:59:54;;;;;;;2.40;1.77;;;3.60;84.70;;;3.88;68.81;97985.22;5067432;28;20048;-34
2021/03/17 03:02:22;;;;;;;1.90;1.43;;;3.50;84.90;;;3.84;69.24;97985.53;5067381;28;20052;-35
2021/03/17 03:04:53;;;;;;;2.70;1.87;;;3.40;85.00;;;3.83;68.84;97979.44;5084530;28;20049;-34
2021/03/17 03:07:23;;;;;;;2.03;1.50;;;3.40;85.00;;;3.81;68.79;97983.97;5085026;28;20048;-34
2021/03/17 03:09:53;;;;;;;2.07;1.70;;;3.40;85.30;;;3.71;69.07;97989.06;5067672;28;20048;-34
2021/03/17 03:12:22;;;;;;;2.43;1.67;;;3.30;85.30;;;3.76;69.39;97988.72;5066614;28;20054;-35
2021/03/17 03:14:53;;;;;;;3.43;2.10;;;3.40;85.50;;;3.73;69.29;97989.78;5067709;28;20192;-34
2021/03/17 03:17:21;;;;;;;2.77;1.83;;;3.40;85.60;;;3.70;69.28;97978.63;5067410;28;20044;-34
2021/03/17 03:19:54;;;;;;;2.50;1.73;;;3.30;85.70;;;3.74;69.41;97988.00;5050324;28;20269;-34
2021/03/17 03:22:25;;;;;;;2.93;2.40;;;3.30;86.10;;;3.75;69.42;97981.78;5083259;28;20074;-34
2021/03/17 03:24:55;;;;;;;3.73;2.13;;;3.40;85.70;;;3.79;69.40;97985.88;5084970;28;20040;-34
2021/03/17 03:27:24;;;;;;;3.73;2.47;;;3.40;85.60;;;3.83;69.29;97986.50;5067274;28;20071;-34
2021/03/17 03:29:53;;;;;;;3.50;2.30;;;3.50;85.60;;;3.82;69.67;97983.03;5083867;28;20055;-34
2021/03/17 03:32:22;;;;;;;2.60;2.00;;;3.50;85.60;;;3.82;69.76;97979.53;5084213;28;20055;-34
2021/03/17 03:34:49;;;;;;;4.30;2.40;;;3.50;85.30;;;3.79;69.56;97985.03;5084615;28;20063;-34
2021/03/17 03:37:17;;;;;;;2.97;2.10;;;3.40;86.80;;;3.79;69.30;97983.25;5084541;28;20044;-34
2021/03/17 03:39:45;;;;;;;3.47;2.30;;;3.40;86.20;;;3.83;69.12;97978.59;5084640;28;20050;-34
2021/03/17 03:42:12;;;;;;;3.23;2.33;;;3.40;85.80;;;3.87;69.09;97980.06;5066640;28;20050;-34
2021/03/17 03:44:39;;;;;;;3.70;2.23;;;3.50;85.60;;;3.82;69.80;97985.66;5065745;28;20044;-34
2021/03/17 03:47:07;;;;;;;3.80;2.63;;;3.50;85.70;;;3.80;69.30;97981.44;5083763;28;20044;-35
2021/03/17 03:49:34;;;;;;;4.63;2.70;;;3.40;85.70;;;3.84;69.78;97983.75;5050475;28;20222;-34
2021/03/17 03:52:16;;;;;;;3.53;2.60;;;3.50;85.80;;;3.80;69.18;97984.06;5050222;28;20229;-34
2021/03/17 03:55:06;;;;;;;3.97;2.63;;;3.40;86.00;;;3.75;69.62;97984.41;5084451;28;20156;-34
2021/03/17 03:57:46;;;;;;;3.50;2.53;;;3.40;86.00;;;3.71;70.25;97989.06;5068889;28;20216;-34
2021/03/17 04:00:23;;;;;;;3.90;2.90;;;3.40;86.00;;;3.67;69.80;97990.22;5084210;28;20047;-35
2021/03/17 04:02:56;;;;;;;3.90;2.60;;;3.30;86.40;;;3.70;69.68;97999.69;5066532;28;20037;-34
2021/03/17 04:05:32;;;;;;;3.90;2.80;;;3.40;86.30;;;3.71;69.70;97998.75;5067126;28;20055;-34
2021/03/17 04:08:22;;;;;;;4.30;2.80;;;3.40;86.10;;;3.72;70.08;98006.56;5067318;28;20054;-34
2021/03/17 04:11:00;;;;;;;4.73;3.20;;;3.40;86.50;;;3.60;70.59;98009.22;5068661;28;20052;-35
2021/03/17 04:13:32;;;;;;;6.17;3.40;;;3.20;87.00;;;3.59;69.88;98010.16;5082907;28;20056;-34
2021/03/17 04:16:00;;;;;;;3.87;3.10;;;3.20;86.90;;;3.64;70.19;98011.50;5066551;28;20040;-35
2021/03/17 04:18:35;;;;;;;4.87;3.20;;;3.30;87.20;;;3.57;70.21;98012.91;5066353;28;20074;-34
2021/03/17 04:21:15;;;;;;;4.83;3.20;;;3.20;87.20;;;3.63;69.93;98011.63;5066673;28;20111;-34
2021/03/17 04:23:46;;;;;;;4.90;3.27;;;3.30;87.30;;;3.70;69.81;98007.59;5066299;28;20052;-34
2021/03/17 04:26:15;;;;;;;5.33;3.60;;;3.40;87.00;;;3.77;70.38;98016.75;5066449;28;20241;-34
2021/03/17 04:28:44;;;;;;;4.93;3.40;;;3.40;86.50;;;3.78;70.14;98012.31;5065984;28;20063;-34
2021/03/17 04:31:14;;;;;;;4.43;3.07;;;3.40;86.50;;;3.70;69.81;98012.88;5082268;28;20056;-34
2021/03/17 04:33:43;;;;;;;4.17;2.70;;;3.30;87.00;;;3.70;70.03;98002.31;5065253;28;20053;-35
2021/03/17 04:36:14;;;;;;;3.87;2.77;;;3.30;86.70;;;3.71;69.48;98007.50;5065932;28;20047;-34
2021/03/17 04:38:42;;;;;;;5.00;3.97;;;3.40;86.60;;;3.72;70.16;98014.47;5065475;28;20044;-34
2021/03/17 04:41:10;;;;;;;5.60;3.77;;;3.40;86.80;;;3.68;70.01;98004.22;5065880;28;20040;-34
2021/03/17 04:43:40;;;;;;;5.57;3.60;;;3.30;87.10;;;3.67;69.78;98011.31;5065384;28;20235;-34
2021/03/17 04:46:10;;;;;;;6.70;4.03;;;3.30;87.00;;;3.63;70.17;98017.75;5082312;28;20376;-34
2021/03/17 04:48:41;;;;;;;5.30;3.80;;;3.30;87.00;;;3.64;70.28;98019.41;5066016;28;20062;-34
2021/03/17 04:51:10;;;;;;;5.80;3.60;;;3.30;87.20;;;3.54;70.51;98019.22;5065935;28;20392;-34
2021/03/17 04:53:38;;;;;;;5.13;3.63;;;3.20;87.70;;;3.53;70.32;98020.19;5048038;28;20053;-34
2021/03/17 04:56:07;;;;;;;6.70;3.93;;;3.20;88.10;;;3.54;70.97;98018.38;5083053;28;20252;-35
2021/03/17 04:58:39;;;;;;;5.70;3.87;;;3.20;87.80;;;3.50;70.78;98020.38;5063116;28;20310;-34
2021/03/17 05:01:11;;;;;;;5.83;4.27;;;3.20;87.80;;;3.54;71.13;98018.38;5064538;28;20054;-35
2021/03/17 05:03:41;;;;;;;5.80;3.90;;;3.20;88.00;;;3.39;71.92;98025.53;5064835;28;20175;-34
2021/03/17 05:06:11;;;;;;;6.70;4.33;;;3.10;88.30;;;3.37;71.35;98018.72;5082829;28;20066;-34
2021/03/17 05:08:43;;;;;;;7.27;4.83;;;3.00;89.00;;;3.42;70.56;98027.97;5048455;28;20048;-34
2021/03/17 05:11:14;;;;;;;8.43;4.83;;;3.10;88.70;;;3.47;71.07;98027.66;5081966;28;20048;-35
2021/03/17 05:13:42;;;;;;;6.93;4.37;;;3.20;88.30;;;3.35;71.42;98024.94;5082289;28;20055;-34
2021/03/17 05:16:11;;;;;;;8.13;5.17;;;3.00;88.90;;;3.29;71.56;98027.16;5065132;28;20052;-35
2021/03/17 05:18:40;;;;;;;8.97;5.50;;;3.00;89.20;;;3.30;71.36;98028.84;5065121;28;20346;-34
2021/03/17 05:21:10;;;;;;;8.17;5.53;;;3.00;89.10;;;3.30;71.33;98032.31;5065116;28;20045;-34
2021/03/17 05:23:40;;;;;;;8.50;6.00;;;3.00;88.90;;;3.36;71.30;98031.03;5081509;28;20053;-35
2021/03/17 05:26:09;;;;;;;8.07;5.53;;;3.10;88.90;;;3.35;71.52;98026.72;5065095;28;20045;-35
2021/03/17 05:28:40;;;;;;;8.67;5.20;;;3.10;89.10;;;3.26;71.80;98028.22;5065153;28;20048;-35
2021/03/17 05:31:09;;;;;;;9.53;6.07;;;3.00;89.50;;;3.17;72.12;98033.25;5071372;23;20037;-33
2021/03/17 05:33:37;;;;;;;8.57;5.53;;;2.90;90.00;;;3.26;72.29;98035.28;5039809;28;20040;-33
2021/03/17 05:36:05;;;;;;;10.63;6.20;;;3.00;90.10;;;3.28;72.11;98030.75;5064996;28;20049;-33
2021/03/17 05:38:32;;;;;;;9.83;5.53;;;3.00;89.50;;;3.33;72.13;98040.00;5082338;28;20040;-33
2021/03/17 05:41:00;;;;;;;10.37;7.10;;;3.10;89.30;;;3.40;71.89;98039.56;5082460;28;20040;-33
2021/03/17 05:43:28;;;;;;;8.47;5.70;;;3.20;89.30;;;3.34;72.24;98040.84;5081063;28;20229;-33
2021/03/17 05:45:57;;;;;;;9.93;5.57;;;3.10;89.20;;;3.43;72.13;98047.25;5082335;28;20056;-33
2021/03/17 05:48:26;;;;;;;10.53;6.90;;;3.20;89.20;;;3.39;71.98;98048.41;5082323;28;20245;-33
2021/03/17 05:50:55;;;;;;;10.27;6.07;;;3.10;89.40;;;3.42;71.60;98051.66;5064169;28;20048;-33
2021/03/17 05:53:22;;;;;;;10.50;6.43;;;3.20;89.50;;;3.28;72.42;98051.78;5064237;28;20045;-33
2021/03/17 05:55:51;;;;;;;9.60;6.30;;;3.00;90.00;;;3.28;72.29;98064.94;5064653;28;20053;-33
2021/03/17 05:58:22;;;;;;;10.47;6.87;;;3.00;89.90;;;3.37;71.89;98066.94;5081588;28;20052;-34
2021/03/17 06:00:49;;;;;;;10.80;6.27;;;3.10;90.60;;;3.40;71.89;98066.72;5079765;28;20058;-33
2021/03/17 06:03:20;;;;;;;9.00;5.83;;;3.10;89.50;;;3.31;72.47;98065.56;5081405;28;20060;-33
2021/03/17 06:05:49;;;;;;;10.03;6.10;;;3.00;89.80;;;3.31;71.97;98072.63;5064795;28;20040;-33
2021/03/17 06:08:26;;;;;;;8.70;5.50;;;3.00;89.70;;;3.31;72.03;98070.00;5082078;28;20063;-33
2021/03/17 06:10:56;;;;;;;10.00;5.90;;;3.00;89.20;;;3.23;71.98;98064.41;5081245;28;20256;-33
2021/03/17 06:13:27;;;;;;;9.63;5.70;;;2.90;89.40;;;3.11;71.78;98064.28;5064266;28;20237;-33
2021/03/17 06:16:03;;;;;;;8.87;5.67;;;2.80;89.70;;;3.19;71.70;98074.31;5063701;28;20060;-33
2021/03/17 06:18:35;;;;;;;10.17;6.03;;;2.90;90.10;;;3.21;72.08;98071.56;5064481;28;20044;-33
2021/03/17 06:21:04;;;;;;;8.07;5.77;;;2.80;90.00;;;3.17;72.43;98086.72;5082063;28;20483;-33
2021/03/17 06:23:33;;;;;;;7.63;5.03;;;2.80;89.80;;;3.11;72.17;98084.50;5063816;28;20051;-33
2021/03/17 06:26:03;;;;;;;8.67;5.60;;;2.80;89.40;;;2.98;72.50;98091.53;5064828;28;20040;-33
2021/03/17 06:28:31;;;;;;;7.73;5.13;;;2.70;90.20;;;3.04;72.23;98085.84;5081901;28;20055;-33
2021/03/17 06:30:59;;;;;;;7.37;5.20;;;2.70;90.70;;;3.09;72.34;98095.13;5081814;28;20048;-33
2021/03/17 06:33:27;;;;;;;8.53;6.10;;;2.80;90.20;;;3.08;71.91;98096.09;5081304;28;20048;-33
2021/03/17 06:36:18;;;;;;;8.00;5.10;;;2.80;89.70;;;3.10;72.03;98095.97;5081919;28;20059;-33
2021/03/17 06:38:47;;;;;;;7.60;5.83;;;2.80;89.70;;;3.07;72.56;98096.19;5081892;28;20044;-33
2021/03/17 06:41:19;;;;;;;8.37;5.43;;;2.80;90.40;;;2.99;72.30;98101.97;5064257;28;20342;-33
2021/03/17 06:43:49;;;;;;;8.20;5.70;;;2.70;90.50;;;2.85;72.58;98102.03;5081311;28;20044;-33
2021/03/17 06:46:19;;;;;;;8.47;5.73;;;2.60;91.30;;;2.91;72.31;98101.63;5080638;28;20045;-33
2021/03/17 06:48:58;;;;;;;7.43;5.10;;;2.60;91.10;;;2.95;72.67;98116.28;5081271;28;20054;-34
2021/03/17 06:51:30;;;;;;;8.63;4.27;;;2.70;91.00;;;2.85;73.02;98110.78;5081418;28;20196;-33
2021/03/17 06:54:01;;;;;;;7.70;4.70;;;2.60;90.50;;;2.78;73.16;98121.78;5080729;28;20059;-33
2021/03/17 06:56:34;;;;;;;6.50;4.90;;;2.50;91.20;;;2.65;73.08;98116.50;5084839;28;20049;-33
2021/03/17 06:59:05;;;;;;;7.43;4.10;;;2.40;92.10;;;2.73;73.04;98119.44;5068164;28;20047;-33
2021/03/17 07:01:42;;;;;;;6.73;4.30;;;2.50;91.60;;;2.80;73.02;98126.00;5082830;28;20041;-33
2021/03/17 07:04:12;;;;;;;6.80;4.20;;;2.60;91.50;;;2.90;72.73;98116.56;5084634;28;20047;-33
2021/03/17 07:06:45;;;;;;;7.70;4.87;;;2.60;90.60;;;3.02;72.50;98121.94;5085091;28;20048;-33
2021/03/17 07:09:25;;;;;;;6.40;3.93;;;2.80;90.50;;;3.14;72.94;98116.72;5084997;28;20044;-33
2021/03/17 07:12:10;;;;;;;6.40;4.00;;;2.90;89.90;;;3.22;72.44;98110.06;5084512;28;20049;-33
2021/03/17 07:14:43;;;;;;;6.63;4.20;;;3.00;89.20;;;3.25;72.38;98110.72;5084944;28;20360;-33
2021/03/17 07:17:31;;;;;;;7.40;4.55;;;3.00;89.20;;;3.27;72.32;98111.47;5084920;28;20355;-33
2021/03/17 07:19:59;;;;;;;6.73;4.07;;;3.00;89.80;;;3.35;72.13;98110.94;5084823;28;20048;-33
2021/03/17 07:22:26;;;;;;;7.07;4.27;;;3.10;89.40;;;3.40;72.17;98108.00;5084560;28;20044;-33
2021/03/17 07:25:00;;;;;;;10.10;4.70;;;3.10;89.10;;;3.41;72.15;98114.94;5084903;28;20055;-33
2021/03/17 07:27:31;;;;;;;8.18;4.10;;;3.20;89.00;;;3.43;72.03;98121.81;5084809;28;20044;-33
2021/03/17 07:29:58;;;;;;;8.07;4.53;;;3.10;89.00;;;3.49;71.94;98118.75;5084388;28;20045;-33
2021/03/17 07:33:06;;;;;;;9.03;4.67;;;3.30;88.40;;;3.58;71.77;98119.06;5084114;28;20045;-33
2021/03/17 07:35:37;;;;;;;9.57;5.13;;;3.40;88.30;;;3.66;71.97;98130.72;5067925;28;20050;-33
2021/03/17 07:38:10;;;;;;;8.07;5.00;;;3.50;88.50;;;3.72;71.93;98134.72;5084604;28;20066;-33
2021/03/17 07:40:44;;;;;;;9.40;5.30;;;3.50;87.60;;;3.74;71.89;98136.34;5085055;28;20046;-33
2021/03/17 07:43:15;;;;;;;9.20;7.27;;;3.50;88.60;;;3.83;72.34;98131.38;5065671;28;20055;-33
2021/03/17 07:45:43;;;;;;;8.90;5.70;;;3.60;87.60;;;3.87;71.85;98138.09;5066983;28;20047;-33
2021/03/17 07:48:12;;;;;;;8.47;5.97;;;3.70;87.50;;;3.91;71.95;98145.66;5084343;28;20051;-33
2021/03/17 07:50:43;;;;;;;11.60;6.60;;;3.70;87.70;;;4.02;71.93;98144.09;5084340;28;20047;-33
2021/03/17 07:53:26;;;;;;;9.77;6.10;;;3.90;87.90;;;4.11;71.69;98144.28;5084200;28;20047;-33
2021/03/17 07:55:57;;;;;;;10.33;5.27;;;4.00;87.40;;;4.03;71.99;98143.13;5084414;28;20040;-33
2021/03/17 07:58:25;;;;;;;11.70;6.30;;;3.80;86.50;;;3.97;71.45;98144.41;5083985;28;20047;-33
2021/03/17 08:00:53;;;;;;;9.30;5.83;;;3.70;88.50;;;4.01;71.58;98137.97;5081636;28;20229;-33
2021/03/17 08:03:22;;;;;;;11.00;6.17;;;3.80;88.10;;;4.14;71.80;98130.03;5083807;28;20041;-33
2021/03/17 08:05:51;;;;;;;8.70;5.77;;;3.90;87.70;;;4.16;71.76;98129.94;5066401;28;20049;-33
2021/03/17 08:08:20;;;;;;;8.73;6.10;;;4.00;87.00;;;4.19;71.63;98125.31;5083449;28;20052;-33
2021/03/17 08:10:48;;;;;;;11.10;6.73;;;4.00;87.00;;;4.15;71.66;98134.38;5066377;28;20241;-33
2021/03/17 08:13:16;;;;;;;9.83;6.27;;;4.00;86.20;;;4.04;71.27;98140.41;5065297;28;20052;-33
2021/03/17 08:15:44;;;;;;;11.50;6.80;;;3.80;86.60;;;4.04;71.13;98143.03;5083750;28;20048;-33
2021/03/17 08:18:31;;;;;;;11.67;6.97;;;3.80;87.60;;;3.98;71.32;98147.91;5066342;28;20084;-34
2021/03/17 08:21:03;;;;;;;12.53;7.53;;;3.70;87.90;;;3.96;71.02;98149.81;5082859;28;20237;-33
2021/03/17 08:23:50;;;;;;;10.40;6.40;;;3.70;87.20;;;3.94;71.82;98145.47;5065653;28;20346;-33
2021/03/17 08:26:20;;;;;;;13.57;7.67;;;3.70;87.20;;;3.98;71.51;98151.38;5065317;28;20354;-32
2021/03/17 08:28:51;;;;;;;11.73;6.90;;;3.80;87.70;;;3.89;71.90;98139.66;5083239;28;20057;-32
2021/03/17 08:31:37;;;;;;;14.73;8.07;;;3.70;88.00;;;3.91;72.12;98147.47;5083408;28;20044;-32
2021/03/17 08:34:20;;;;;;;16.27;7.73;;;3.70;88.20;;;3.97;72.07;98136.50;5083022;28;20048;-32
2021/03/17 08:36:54;;;;;;;13.17;6.43;;;3.80;88.10;;;3.97;72.22;98133.03;5083351;28;20223;-32
2021/03/17 08:39:33;;;;;;;;;;;3.80;87.50;;;3.98;71.88;98130.28;5083799;28;20263;-32
2021/03/17 08:42:27;;;;;;;11.63;6.90;;;3.90;87.20;;;4.12;71.67;98126.69;5082800;28;19923;-32
2021/03/17 08:45:00;;;;;;;15.13;7.13;;;4.00;87.60;;;4.19;71.82;98127.06;5083043;28;20059;-32
2021/03/17 08:47:42;;;;;;;12.23;7.57;;;4.10;86.80;;;4.04;71.56;98126.38;5083168;28;20051;-32
2021/03/17 08:50:16;;;;;;;17.20;7.43;;;3.90;85.70;;;4.13;71.51;98123.09;5083211;28;20585;-32
2021/03/17 08:52:48;;;;;;;11.68;6.65;;;3.90;86.60;;;4.14;70.87;98127.41;5082506;28;20356;-32
2021/03/17 08:55:20;;;;;;;12.30;7.43;;;3.90;85.50;;;4.20;71.27;98126.97;5082879;28;20051;-32
2021/03/17 08:58:01;;;;;;;13.43;7.97;;;4.10;85.90;;;4.36;71.23;98131.97;5082835;28;20044;-32
2021/03/17 09:01:10;;;;;;;12.07;6.93;;;4.30;86.10;;;4.48;71.30;98125.84;5082502;28;20062;-32
2021/03/17 09:03:44;;;;;;;12.10;7.03;;;4.40;84.70;;;4.58;70.87;98122.53;5082460;28;20115;-32
2021/03/17 09:06:28;;;;;;;12.07;7.17;;;4.50;84.90;;;4.71;70.99;98115.38;5082375;28;20275;-32
2021/03/17 09:09:25;;;;;;;12.23;7.05;;;4.70;84.80;;;4.80;70.91;98114.72;5082758;28;20237;-32
2021/03/17 09:11:53;;;;;;;9.67;5.50;;;4.80;83.80;;;4.82;70.79;98118.09;5062179;28;20060;-32
2021/03/17 09:14:27;;;;;;;11.53;6.50;;;4.70;82.60;;;4.72;68.75;98115.28;5082160;28;20044;-32
2021/03/17 09:17:13;;;;;;;9.97;5.77;;;4.60;78.70;;;4.78;70.17;98123.72;5082778;28;20054;-32
2021/03/17 09:20:09;;;;;;;15.37;7.97;;;4.60;81.60;;;4.86;69.87;98130.09;5082504;28;20037;-33
2021/03/17 09:23:17;;;;;;;9.10;5.57;;;4.70;82.10;;;4.85;68.87;98135.50;5065563;28;20060;-32
2021/03/17 09:25:56;;;;;;;11.87;5.50;;;4.80;78.90;;;4.82;67.91;98138.34;5081615;28;20052;-32
2021/03/17 09:28:30;;;;;;;9.67;5.30;;;4.70;78.40;;;4.87;68.38;98144.97;5082117;28;20048;-32
2021/03/17 09:31:04;;;;;;;11.20;6.15;;;4.70;78.90;;;4.88;68.42;98132.63;5058418;28;20249;-32
2021/03/17 09:33:44;;;;;;;11.30;5.63;;;4.70;79.60;;;4.90;67.68;98136.84;5059229;28;20044;-32
2021/03/17 09:36:23;;;;;;;9.03;5.10;;;4.80;78.80;;;5.01;68.44;98120.19;5058831;28;20356;-32
2021/03/17 09:39:02;;;;;;;10.67;6.60;;;4.90;80.30;;;5.08;68.68;98120.59;5059614;28;20049;-33
2021/03/17 09:41:36;;;;;;;10.95;6.55;;;5.00;78.20;;;4.99;65.74;98116.00;5030592;28;20351;-33
2021/03/17 09:44:13;;;;;;;7.50;4.60;;;5.00;75.90;;;5.06;67.40;98112.78;5059094;28;20338;-33
2021/03/17 09:46:48;;;;;;;6.30;3.83;;;5.00;77.30;;;5.12;66.78;98111.50;5059120;28;20037;-33
2021/03/17 09:49:25;;;;;;;7.97;4.27;;;5.10;73.80;;;5.19;66.29;98112.69;5044110;28;20055;-33
2021/03/17 09:52:04;;;;;;;13.10;5.23;;;5.20;77.20;;;5.36;66.57;98116.69;5059616;28;20055;-32
2021/03/17 09:54:34;;;;;;;7.87;4.97;;;5.40;76.50;;;5.48;66.33;98109.63;5042822;28;20365;-32
2021/03/17 09:57:07;;;;;;;8.03;4.97;;;5.50;76.50;;;5.61;67.38;98114.81;5060277;28;20045;-33
2021/03/17 09:59:49;;;;;;;11.43;5.20;;;5.70;75.10;;;5.68;65.88;98114.22;5052640;28;20056;-33
2021/03/17 10:02:24;;;;;;;8.43;5.30;;;5.80;74.30;;;5.78;64.32;98109.06;5041598;28;20045;-33
2021/03/17 10:05:01;;;;;;;5.05;3.47;;;5.90;71.90;;;5.77;63.59;98106.53;5042745;28;20075;-33
2021/03/17 10:07:32;;;;;;;5.73;3.43;;;5.90;70.60;;;5.76;63.34;98105.72;5060408;28;20364;-33
2021/03/17 10:10:03;;;;;;;7.38;4.32;;;5.80;69.80;;;5.84;64.56;98105.94;5060297;28;20389;-33
2021/03/17 10:12:32;;;;;;;5.37;3.17;;;5.80;71.60;;;5.90;64.75;98096.69;5058811;28;20133;-32
2021/03/17 10:15:13;;;;;;;7.10;3.77;;;5.90;71.10;;;5.89;62.07;98092.38;5060488;28;20055;-32
2021/03/17 10:17:42;;;;;;;5.97;3.63;;;5.90;67.70;;;5.85;62.45;98098.84;5061339;28;20116;-33
2021/03/17 10:20:14;;;;;;;8.03;4.20;;;5.80;68.10;;;5.87;63.05;98099.56;5059192;28;20249;-33
2021/03/17 10:22:44;;;;;;;7.37;3.73;;;5.80;71.20;;;5.86;61.46;98092.63;5060210;28;20041;-32
2021/03/17 10:25:21;;;;;;;6.67;3.50;;;5.80;65.20;;;5.83;60.12;98091.03;5060998;28;20049;-33
2021/03/17 10:28:11;;;;;;;9.30;4.33;;;5.70;64.80;;;5.84;60.81;98081.34;5059460;28;20053;-32
2021/03/17 10:30:42;;;;;;;6.10;4.17;;;5.80;67.30;;;5.96;61.96;98084.84;5024937;28;20056;-32
2021/03/17 10:33:12;;;;;;;6.87;3.87;;;5.90;69.30;;;5.94;61.71;98082.28;5043146;28;20060;-32
2021/03/17 10:35:43;;;;;;;5.63;3.07;;;6.00;67.50;;;6.07;61.67;98087.47;5043801;28;20247;-32
2021/03/17 10:38:11;;;;;;;6.17;3.40;;;6.10;66.00;;;6.06;60.42;98083.13;5045403;28;20041;-32
2021/03/17 10:40:40;;;;;;;4.73;2.90;;;6.10;66.30;;;5.99;59.39;98081.94;5063904;28;20041;-32
2021/03/17 10:43:08;;;;;;;4.33;2.90;;;6.00;66.50;;;6.05;60.77;98079.66;5063424;28;20051;-32
2021/03/17 10:45:49;;;;;;;4.67;2.90;;;6.00;67.40;;;6.02;57.90;98077.25;5064182;28;20051;-32
2021/03/17 10:48:22;;;;;;;4.70;2.63;;;6.00;61.50;;;5.92;57.75;98078.91;5048265;28;20342;-32
2021/03/17 10:50:51;;;;;;;4.07;2.87;;;5.80;64.70;;;5.91;58.43;98074.59;5063421;28;20045;-32
2021/03/17 10:53:27;;;;;;;5.97;3.53;;;5.80;65.60;;;5.92;59.29;98076.28;5063737;28;20071;-33
2021/03/17 10:55:57;;;;;;;7.20;3.73;;;5.80;65.80;;;5.85;58.62;98069.78;5064817;28;20044;-33
2021/03/17 10:58:29;;;;;;;6.27;3.20;;;5.70;65.80;;;5.88;60.20;98070.38;5063978;28;20051;-33
2021/03/17 11:01:04;;;;;;;7.73;4.33;;;5.80;69.00;;;5.92;60.72;98077.09;5059676;28;20051;-32
2021/03/17 11:03:39;;;;;;;7.17;4.57;;;5.80;69.30;;;5.90;61.30;98071.09;5064025;28;20224;-33